Time;durP1;ratioP1;P1;durP2;ratioP2;P2;SDS_P1;SDS_P2;PMS_P1;PMS_P2;Temp;Humidity;BMP_temperature;BMP_pressure;BME280_temperature;BME280_humidity;BME280_pressure;Samples;Min_cycle;Max_cycle;Signal;HPM_P1;HPM_P2
2023/04/05 00:01:25;;;;;;;4.57;2.58;;;0.30;99.90;;;;;;5066546;28;20021;-82
2023/04/05 00:03:53;;;;;;;4.55;2.90;;;0.30;99.90;;;;;;5065901;28;20049;-82
2023/04/05 00:06:27;;;;;;;4.45;2.40;;;0.40;99.90;;;;;;5061886;28;20029;-82
2023/04/05 00:08:58;;;;;;;4.45;2.45;;;0.40;99.90;;;;;;5067115;28;20028;-83
2023/04/05 00:11:31;;;;;;;5.38;3.13;;;0.40;99.90;;;;;;5065652;28;20032;-83
2023/04/05 00:14:01;;;;;;;7.88;2.92;;;0.30;99.90;;;;;;5065860;28;20034;-82
2023/04/05 00:16:28;;;;;;;8.35;3.67;;;0.30;99.90;;;;;;5059137;28;20059;-83
2023/04/05 00:18:56;;;;;;;3.30;2.95;;;0.30;99.90;;;;;;5065071;28;20031;-83
2023/04/05 00:21:23;;;;;;;5.07;2.72;;;0.30;99.90;;;;;;5066378;28;20348;-82
2023/04/05 00:23:58;;;;;;;4.53;2.95;;;0.30;99.90;;;;;;5066528;28;20094;-83
2023/04/05 00:26:24;;;;;;;6.10;3.08;;;0.20;99.90;;;;;;5062999;28;20039;-82
2023/04/05 00:28:50;;;;;;;8.15;3.25;;;0.20;99.90;;;;;;5062873;28;20033;-84
2023/04/05 00:31:17;;;;;;;8.02;3.55;;;0.20;99.90;;;;;;5064320;28;20032;-82
2023/04/05 00:33:42;;;;;;;6.40;2.78;;;0.10;99.90;;;;;;5063600;28;20068;-82
2023/04/05 00:36:13;;;;;;;5.20;2.95;;;0.10;99.90;;;;;;5068037;28;20051;-82
2023/04/05 00:38:40;;;;;;;5.32;2.80;;;0.10;99.90;;;;;;5054987;28;20028;-82
2023/04/05 00:41:06;;;;;;;6.43;2.70;;;0.10;99.90;;;;;;5058756;28;20082;-82
2023/04/05 00:43:32;;;;;;;3.58;2.75;;;0.10;99.90;;;;;;5064785;28;20115;-83
2023/04/05 00:45:58;;;;;;;3.95;2.72;;;0.10;99.90;;;;;;5067627;28;20433;-82
2023/04/05 00:48:24;;;;;;;8.38;2.95;;;0.10;99.90;;;;;;5065234;28;20107;-82
2023/04/05 00:50:51;;;;;;;7.35;3.13;;;0.00;99.90;;;;;;5063828;28;20108;-82
2023/04/05 00:53:19;;;;;;;4.68;2.50;;;0.00;99.90;;;;;;5061764;28;20389;-82
2023/04/05 00:55:47;;;;;;;3.33;2.58;;;0.00;99.90;;;;;;5064763;28;20530;-82
2023/04/05 00:58:13;;;;;;;6.85;2.58;;;0.00;99.90;;;;;;5065506;28;20035;-82
2023/04/05 01:00:39;;;;;;;4.57;2.92;;;0.00;99.90;;;;;;5061211;28;20029;-83
2023/04/05 01:03:07;;;;;;;9.10;2.80;;;0.10;99.90;;;;;;5058367;28;20128;-82
2023/04/05 01:05:46;;;;;;;7.03;2.72;;;0.00;99.90;;;;;;5062647;28;20024;-82
2023/04/05 01:08:17;;;;;;;4.47;2.83;;;0.10;99.90;;;;;;5061456;28;20020;-83
2023/04/05 01:10:50;;;;;;;6.90;3.05;;;0.10;99.90;;;;;;5068526;28;20024;-82
2023/04/05 01:13:18;;;;;;;5.55;3.08;;;0.10;99.90;;;;;;5066213;28;20032;-84
2023/04/05 01:15:44;;;;;;;3.88;2.60;;;0.00;99.90;;;;;;5062137;28;20037;-83
2023/04/05 01:18:10;;;;;;;6.35;2.70;;;-0.10;99.90;;;;;;5062624;28;20024;-83
2023/04/05 01:20:44;;;;;;;5.30;2.97;;;0.00;99.90;;;;;;5065265;28;20039;-82
2023/04/05 01:23:36;;;;;;;6.28;2.97;;;0.00;99.90;;;;;;5060175;28;20151;-82
2023/04/05 01:26:39;;;;;;;7.40;3.55;;;0.00;99.90;;;;;;5059329;28;20469;-83
2023/04/05 01:29:08;;;;;;;5.95;3.15;;;0.00;99.90;;;;;;5060643;28;20035;-83
2023/04/05 01:31:55;;;;;;;6.20;3.40;;;-0.10;99.90;;;;;;5065259;28;20485;-83
2023/04/05 01:34:45;;;;;;;4.57;2.88;;;-0.10;99.90;;;;;;5063876;28;20025;-83
2023/04/05 01:37:16;;;;;;;3.70;2.65;;;0.00;99.90;;;;;;5060233;28;20093;-82
2023/04/05 01:39:46;;;;;;;6.25;2.88;;;0.00;99.90;;;;;;5056699;28;20470;-83
2023/04/05 01:42:12;;;;;;;6.93;3.47;;;0.00;99.90;;;;;;5059278;28;20017;-83
2023/04/05 01:44:37;;;;;;;6.90;3.05;;;0.00;99.90;;;;;;5062693;28;20090;-83
2023/04/05 01:47:06;;;;;;;6.43;3.90;;;0.10;99.90;;;;;;5060963;28;20028;-84
2023/04/05 01:49:31;;;;;;;7.32;3.53;;;0.10;99.90;;;;;;5057673;28;20028;-83
2023/04/05 01:51:57;;;;;;;5.03;2.70;;;0.20;99.90;;;;;;5059529;28;20511;-83
2023/04/05 01:54:22;;;;;;;11.57;3.53;;;0.20;99.90;;;;;;5064799;28;20028;-83
2023/04/05 01:56:48;;;;;;;4.55;2.90;;;0.20;99.90;;;;;;5066033;28;20025;-82
2023/04/05 01:59:13;;;;;;;7.00;3.45;;;0.20;99.90;;;;;;5060397;28;20465;-83
2023/04/05 02:01:39;;;;;;;7.60;3.22;;;0.20;99.90;;;;;;5058616;28;20107;-83
2023/04/05 02:04:05;;;;;;;6.93;3.10;;;0.20;99.90;;;;;;5060510;28;20112;-83
2023/04/05 02:06:31;;;;;;;7.97;3.53;;;0.20;99.90;;;;;;5060723;28;20024;-84
2023/04/05 02:08:56;;;;;;;12.52;3.50;;;0.30;99.90;;;;;;5059672;28;20016;-83
2023/04/05 02:11:22;;;;;;;8.18;3.55;;;0.20;99.90;;;;;;5057993;28;20089;-83
2023/04/05 02:13:50;;;;;;;5.97;3.13;;;0.20;99.90;;;;;;5058212;28;20029;-84
2023/04/05 02:16:17;;;;;;;5.18;3.17;;;0.20;99.90;;;;;;5064444;28;20095;-83
2023/04/05 02:18:49;;;;;;;10.48;3.45;;;0.30;99.90;;;;;;5062287;28;20082;-83
2023/04/05 02:21:15;;;;;;;9.43;3.63;;;0.30;99.90;;;;;;5061694;28;20469;-85
2023/04/05 02:23:41;;;;;;;7.00;3.10;;;0.30;99.90;;;;;;5063764;28;20033;-83
2023/04/05 02:26:06;;;;;;;4.85;3.10;;;0.20;99.90;;;;;;5061826;28;20032;-84
2023/04/05 02:28:32;;;;;;;12.05;3.47;;;0.30;99.90;;;;;;5058691;28;21812;-83
2023/04/05 02:30:57;;;;;;;5.28;2.90;;;0.30;99.90;;;;;;5058682;28;20069;-83
2023/04/05 02:33:23;;;;;;;6.53;3.00;;;0.30;99.90;;;;;;5061238;28;20102;-83
2023/04/05 02:35:50;;;;;;;5.35;3.05;;;0.30;99.90;;;;;;5066438;28;20043;-83
2023/04/05 02:38:16;;;;;;;4.35;2.67;;;0.30;99.90;;;;;;5062033;28;20039;-85
2023/04/05 02:40:44;;;;;;;14.23;3.50;;;0.40;99.90;;;;;;5055017;28;20393;-83
2023/04/05 02:43:10;;;;;;;4.45;3.00;;;0.40;99.90;;;;;;5062334;28;20029;-83
2023/04/05 02:45:35;;;;;;;3.40;2.45;;;0.40;99.90;;;;;;5056619;28;20025;-83
2023/04/05 02:48:01;;;;;;;10.00;3.90;;;0.40;99.90;;;;;;5060665;28;20017;-84
2023/04/05 02:50:26;;;;;;;6.50;3.05;;;0.50;99.90;;;;;;5063255;28;20465;-83
2023/04/05 02:52:54;;;;;;;9.15;3.40;;;0.50;99.90;;;;;;5064631;28;20063;-84
2023/04/05 02:55:19;;;;;;;8.27;3.72;;;0.50;99.90;;;;;;5060188;28;20568;-83
2023/04/05 02:57:48;;;;;;;8.05;2.80;;;0.60;99.90;;;;;;5061641;28;20115;-85
2023/04/05 03:00:14;;;;;;;7.63;3.05;;;0.50;99.90;;;;;;5060051;28;20463;-83
2023/04/05 03:02:40;;;;;;;13.00;5.57;;;0.50;99.90;;;;;;5063863;28;20053;-83
2023/04/05 03:05:06;;;;;;;9.88;3.42;;;0.50;99.90;;;;;;5062396;28;20051;-84
2023/04/05 03:07:32;;;;;;;9.05;3.78;;;0.60;99.90;;;;;;5060779;28;20032;-83
2023/04/05 03:09:58;;;;;;;11.05;3.80;;;0.50;99.90;;;;;;5064163;28;20466;-83
2023/04/05 03:12:24;;;;;;;13.95;6.07;;;0.50;99.90;;;;;;5061660;28;20032;-83
2023/04/05 03:14:50;;;;;;;8.70;5.68;;;0.50;99.90;;;;;;5064328;28;20024;-83
2023/04/05 03:17:16;;;;;;;9.30;4.47;;;0.50;99.90;;;;;;5061397;28;20032;-85
2023/04/05 03:19:44;;;;;;;11.55;4.95;;;0.60;99.90;;;;;;5061801;28;20068;-84
2023/04/05 03:22:10;;;;;;;11.68;6.00;;;0.60;99.90;;;;;;5065751;28;20047;-84
2023/04/05 03:24:35;;;;;;;19.02;5.90;;;0.60;99.90;;;;;;5064355;28;20041;-84
2023/04/05 03:27:02;;;;;;;13.45;5.45;;;0.60;99.90;;;;;;5061278;28;20054;-84
2023/04/05 03:29:27;;;;;;;11.98;4.97;;;0.60;99.90;;;;;;5065273;28;20052;-83
2023/04/05 03:31:53;;;;;;;8.38;4.78;;;0.60;99.90;;;;;;5065816;28;20017;-83
2023/04/05 03:34:18;;;;;;;13.90;5.20;;;0.60;99.90;;;;;;5061454;28;20032;-84
2023/04/05 03:36:44;;;;;;;7.00;4.60;;;0.60;99.90;;;;;;5066071;28;20021;-83
2023/04/05 03:39:11;;;;;;;6.85;4.45;;;0.60;99.90;;;;;;5064070;28;20324;-83
2023/04/05 03:41:41;;;;;;;13.38;4.70;;;0.70;99.90;;;;;;5064214;28;20025;-84
2023/04/05 03:44:07;;;;;;;7.95;4.15;;;0.70;99.90;;;;;;5066812;28;20047;-83
2023/04/05 03:46:33;;;;;;;7.25;3.95;;;0.70;99.90;;;;;;5066102;28;20025;-84
2023/04/05 03:48:59;;;;;;;9.25;4.47;;;0.70;99.90;;;;;;5070207;28;20416;-83
2023/04/05 03:51:26;;;;;;;9.93;3.80;;;0.70;99.90;;;;;;5065534;28;20473;-84
2023/04/05 03:53:53;;;;;;;9.77;3.47;;;0.70;99.90;;;;;;5067812;28;20033;-84
2023/04/05 03:56:19;;;;;;;5.43;3.10;;;0.80;99.90;;;;;;5064385;28;20029;-83
2023/04/05 03:58:45;;;;;;;5.07;3.17;;;0.80;99.90;;;;;;5065495;28;20138;-85
2023/04/05 04:01:11;;;;;;;5.35;3.13;;;0.80;99.90;;;;;;5067105;28;20040;-83
2023/04/05 04:03:37;;;;;;;9.38;3.83;;;0.80;99.90;;;;;;5064873;28;20477;-84
2023/04/05 04:06:04;;;;;;;4.75;2.67;;;0.80;99.90;;;;;;5061070;28;20021;-84
2023/04/05 04:08:29;;;;;;;5.45;2.65;;;0.80;99.90;;;;;;5065077;28;20062;-84
2023/04/05 04:10:55;;;;;;;5.78;2.90;;;0.80;99.90;;;;;;5059250;28;20101;-83
2023/04/05 04:13:21;;;;;;;4.28;2.53;;;0.80;99.90;;;;;;5060789;28;20020;-84
2023/04/05 04:15:46;;;;;;;5.03;3.03;;;0.80;99.90;;;;;;5061317;28;20039;-83
2023/04/05 04:18:12;;;;;;;4.28;2.50;;;0.80;99.90;;;;;;5065773;28;20028;-83
2023/04/05 04:20:39;;;;;;;5.72;2.97;;;0.80;99.90;;;;;;5066504;28;20044;-83
2023/04/05 04:23:33;;;;;;;4.03;2.53;;;0.80;99.90;;;;;;5065949;28;20024;-84
2023/04/05 04:26:00;;;;;;;4.45;2.35;;;0.80;99.90;;;;;;5064898;28;20036;-83
2023/04/05 04:28:26;;;;;;;3.85;2.65;;;0.80;99.90;;;;;;5064614;28;20024;-83
2023/04/05 04:30:52;;;;;;;3.88;2.10;;;0.90;99.90;;;;;;5063588;28;20146;-83
2023/04/05 04:33:18;;;;;;;5.55;2.60;;;0.90;99.90;;;;;;5066107;28;20504;-84
2023/04/05 04:35:45;;;;;;;10.00;3.70;;;0.90;99.90;;;;;;5065291;28;20027;-84
2023/04/05 04:38:19;;;;;;;3.33;2.50;;;0.90;99.90;;;;;;5066265;28;20031;-84
2023/04/05 04:40:52;;;;;;;6.95;2.92;;;0.90;99.90;;;;;;5067448;28;20028;-83
2023/04/05 04:43:26;;;;;;;7.18;2.83;;;1.00;99.90;;;;;;5062467;28;20467;-85
2023/04/05 04:45:53;;;;;;;3.97;2.50;;;0.90;99.90;;;;;;5059863;28;20035;-84
2023/04/05 04:48:20;;;;;;;2.28;2.08;;;0.90;99.90;;;;;;5059687;28;20174;-84
2023/04/05 04:50:48;;;;;;;5.90;2.92;;;0.90;99.90;;;;;;5063270;28;20370;-84
2023/04/05 04:53:16;;;;;;;9.10;5.03;;;1.00;99.90;;;;;;5098366;28;20024;-84
2023/04/05 04:55:48;;;;;;;11.35;4.57;;;1.00;99.90;;;;;;5066090;28;20181;-84
2023/04/05 04:58:14;;;;;;;14.20;3.63;;;1.00;99.90;;;;;;5067801;28;20394;-84
2023/04/05 05:00:42;;;;;;;5.35;3.00;;;1.00;99.90;;;;;;5060054;28;20032;-84
2023/04/05 05:03:13;;;;;;;6.18;3.28;;;1.00;99.90;;;;;;5064628;28;20406;-84
2023/04/05 05:05:42;;;;;;;6.93;3.00;;;1.00;99.90;;;;;;5065567;28;20024;-84
2023/04/05 05:08:08;;;;;;;4.88;3.40;;;1.00;99.90;;;;;;5066947;28;20388;-84
2023/04/05 05:10:34;;;;;;;4.65;3.17;;;1.00;99.90;;;;;;5061574;28;20028;-84
2023/04/05 05:12:59;;;;;;;6.85;3.10;;;1.10;99.90;;;;;;5061506;28;20103;-84
2023/04/05 05:15:26;;;;;;;4.97;2.97;;;1.00;99.90;;;;;;5062466;28;21664;-84
2023/04/05 05:17:53;;;;;;;4.38;3.20;;;1.00;99.90;;;;;;5062195;28;20025;-84
2023/04/05 05:20:19;;;;;;;8.77;4.07;;;1.00;99.90;;;;;;5064821;28;20037;-85
2023/04/05 05:22:46;;;;;;;7.13;3.03;;;1.00;99.90;;;;;;5057355;28;20384;-89
2023/04/05 05:25:12;;;;;;;10.75;3.47;;;1.10;99.90;;;;;;5059682;28;20040;-85
2023/04/05 05:27:37;;;;;;;9.23;3.42;;;1.10;99.90;;;;;;5055679;28;20031;-84
2023/04/05 05:30:04;;;;;;;6.38;3.40;;;1.10;99.90;;;;;;5064985;28;20385;-86
2023/04/05 05:32:30;;;;;;;10.35;3.88;;;1.10;99.90;;;;;;5066536;28;20032;-84
2023/04/05 05:34:56;;;;;;;5.88;3.72;;;1.10;99.90;;;;;;5062886;28;20039;-85
2023/04/05 05:37:29;;;;;;;8.95;4.57;;;1.10;99.90;;;;;;5059267;28;20370;-84
2023/04/05 05:39:54;;;;;;;4.85;3.58;;;1.10;99.90;;;;;;5059861;28;20031;-84
2023/04/05 05:42:20;;;;;;;12.30;4.90;;;1.10;99.90;;;;;;5061317;28;20033;-85
2023/04/05 05:44:45;;;;;;;11.10;4.78;;;1.20;99.90;;;;;;5065368;28;20040;-84
2023/04/05 05:47:11;;;;;;;5.70;4.22;;;1.30;99.90;;;;;;5065134;28;20028;-84
2023/04/05 05:49:37;;;;;;;6.88;3.47;;;1.40;99.90;;;;;;5063070;28;20037;-84
2023/04/05 05:52:04;;;;;;;8.05;4.03;;;1.40;99.90;;;;;;5055890;28;20362;-86
2023/04/05 05:54:29;;;;;;;7.22;3.85;;;1.40;99.90;;;;;;5057134;28;20699;-85
2023/04/05 05:56:55;;;;;;;16.45;4.53;;;1.40;99.90;;;;;;5061714;28;20030;-84
2023/04/05 05:59:21;;;;;;;9.48;4.50;;;1.30;99.90;;;;;;5063963;28;20393;-84
2023/04/05 06:01:49;;;;;;;9.10;5.43;;;1.40;99.90;;;;;;5059304;28;20389;-85
2023/04/05 06:04:18;;;;;;;7.13;4.80;;;1.40;99.90;;;;;;5064972;28;20075;-86
2023/04/05 06:06:46;;;;;;;12.05;6.03;;;1.40;99.90;;;;;;5060952;28;20032;-85
2023/04/05 06:09:14;;;;;;;8.32;5.85;;;1.50;99.90;;;;;;5064929;28;20021;-84
2023/04/05 06:11:39;;;;;;;8.27;5.60;;;1.50;99.90;;;;;;5062496;28;20031;-84
2023/04/05 06:14:05;;;;;;;8.75;5.05;;;1.50;99.90;;;;;;5062283;28;20139;-84
2023/04/05 06:16:30;;;;;;;7.68;4.68;;;1.60;99.90;;;;;;5063037;28;20116;-85
2023/04/05 06:18:56;;;;;;;11.68;5.13;;;1.60;99.90;;;;;;5058365;28;20024;-84
2023/04/05 06:21:22;;;;;;;8.80;3.72;;;1.60;99.90;;;;;;5058206;28;20017;-84
2023/04/05 06:23:48;;;;;;;7.03;3.88;;;1.60;99.90;;;;;;5061893;28;20036;-85
2023/04/05 06:26:19;;;;;;;5.97;3.63;;;1.70;99.90;;;;;;5061916;28;20054;-85
2023/04/05 06:28:48;;;;;;;11.63;3.65;;;1.70;99.90;;;;;;5056856;28;20032;-85
2023/04/05 06:31:19;;;;;;;7.80;3.70;;;1.70;99.90;;;;;;5062598;28;20029;-85
2023/04/05 06:33:45;;;;;;;4.72;3.33;;;1.70;99.90;;;;;;5054440;28;20111;-85
2023/04/05 06:36:11;;;;;;;9.52;3.90;;;1.70;99.90;;;;;;5064499;28;20115;-85
2023/04/05 06:38:37;;;;;;;13.88;3.83;;;1.80;99.90;;;;;;5061398;28;20046;-85
2023/04/05 06:41:02;;;;;;;9.65;5.35;;;1.80;99.90;;;;;;5060681;28;20035;-85
2023/04/05 06:43:30;;;;;;;12.77;5.93;;;1.90;99.90;;;;;;5057688;28;20090;-86
2023/04/05 06:45:55;;;;;;;18.20;7.20;;;1.90;99.90;;;;;;5062614;28;20024;-85
2023/04/05 06:48:21;;;;;;;16.20;6.55;;;2.00;99.90;;;;;;5059217;28;20491;-85
2023/04/05 06:50:58;;;;;;;18.02;7.25;;;2.00;99.90;;;;;;5061371;28;20047;-87
2023/04/05 06:53:26;;;;;;;24.55;8.63;;;2.20;99.90;;;;;;5059698;28;20032;-85
2023/04/05 06:55:55;;;;;;;14.70;6.47;;;2.30;99.90;;;;;;5064042;28;20493;-84
2023/04/05 06:58:23;;;;;;;11.55;5.03;;;2.30;99.90;;;;;;5063146;28;20031;-86
2023/04/05 07:00:49;;;;;;;6.85;4.10;;;2.30;99.90;;;;;;5066839;28;20024;-85
2023/04/05 07:03:18;;;;;;;7.65;3.30;;;2.40;99.90;;;;;;5084460;28;20459;-87
2023/04/05 07:05:56;;;;;;;7.78;3.45;;;2.40;99.90;;;;;;5064074;28;20508;-84
2023/04/05 07:08:23;;;;;;;5.97;3.17;;;2.40;99.90;;;;;;5061484;28;20029;-85
2023/04/05 07:10:50;;;;;;;11.15;4.10;;;2.50;99.90;;;;;;5061886;28;20623;-85
2023/04/05 07:13:16;;;;;;;11.50;4.25;;;2.60;99.90;;;;;;5060399;28;20032;-85
2023/04/05 07:15:43;;;;;;;8.20;4.38;;;2.60;99.90;;;;;;5063462;28;20028;-85
2023/04/05 07:18:09;;;;;;;7.55;3.80;;;2.60;99.90;;;;;;5057481;28;20493;-86
2023/04/05 07:20:35;;;;;;;8.63;3.85;;;2.60;99.90;;;;;;5056837;28;20059;-86
2023/04/05 07:23:00;;;;;;;6.78;3.75;;;2.70;99.90;;;;;;5057063;28;20393;-85
2023/04/05 07:25:26;;;;;;;15.40;4.72;;;2.70;99.90;;;;;;5057218;28;20036;-85
2023/04/05 07:27:52;;;;;;;13.70;4.68;;;2.70;99.90;;;;;;5059704;28;20024;-85
2023/04/05 07:30:18;;;;;;;11.93;5.03;;;2.70;99.90;;;;;;5058559;28;20028;-86
2023/04/05 07:32:44;;;;;;;6.93;4.10;;;2.70;99.90;;;;;;5061228;28;20028;-84
2023/04/05 07:35:09;;;;;;;7.25;4.55;;;2.70;99.90;;;;;;5062044;28;20047;-85
2023/04/05 07:37:36;;;;;;;10.88;4.65;;;2.70;99.90;;;;;;5061884;28;20020;-84
2023/04/05 07:40:02;;;;;;;12.25;4.82;;;2.80;99.90;;;;;;5062920;28;20107;-84
2023/04/05 07:42:28;;;;;;;11.60;5.07;;;2.80;99.90;;;;;;5052150;28;20028;-85
2023/04/05 07:44:54;;;;;;;12.18;4.32;;;2.90;99.90;;;;;;5063833;28;20047;-85
2023/04/05 07:47:19;;;;;;;12.65;5.65;;;2.90;99.90;;;;;;5059323;28;20037;-85
2023/04/05 07:49:45;;;;;;;13.00;4.68;;;3.00;99.90;;;;;;5059315;28;20020;-85
2023/04/05 07:52:10;;;;;;;8.63;4.35;;;3.10;99.90;;;;;;5061734;28;20428;-85
2023/04/05 07:54:41;;;;;;;10.82;4.53;;;3.20;99.90;;;;;;5057991;28;20084;-84
2023/04/05 07:57:09;;;;;;;11.18;3.70;;;3.20;99.90;;;;;;5058430;28;20082;-84
2023/04/05 07:59:34;;;;;;;10.38;3.60;;;3.20;99.90;;;;;;5058070;28;20475;-84
2023/04/05 08:02:00;;;;;;;12.00;4.13;;;3.20;99.90;;;;;;5059507;28;20024;-84
2023/04/05 08:04:26;;;;;;;13.82;4.53;;;3.20;99.90;;;;;;5059765;28;20052;-84
2023/04/05 08:06:51;;;;;;;12.88;4.85;;;3.20;99.90;;;;;;5064699;28;20032;-84
2023/04/05 08:09:18;;;;;;;10.15;4.32;;;3.30;99.90;;;;;;5070523;28;20031;-86
2023/04/05 08:11:44;;;;;;;8.25;3.95;;;3.30;99.90;;;;;;5059455;28;20020;-85
2023/04/05 08:27:56;;;;;;;8.77;3.35;;;3.60;99.90;;;;;;5045341;28;20063;-82
2023/04/05 08:30:22;;;;;;;15.40;3.15;;;3.60;99.90;;;;;;5060012;28;20040;-80
2023/04/05 08:32:48;;;;;;;9.38;3.75;;;3.60;99.90;;;;;;5061479;28;20040;-82
2023/04/05 08:35:13;;;;;;;8.75;3.28;;;3.70;99.90;;;;;;5045561;28;20535;-79
2023/04/05 08:37:39;;;;;;;10.88;3.15;;;3.80;99.90;;;;;;5002978;22;20229;-82
2023/04/05 08:40:07;;;;;;;6.47;2.70;;;3.90;99.90;;;;;;5068412;28;20032;-86
2023/04/05 08:42:41;;;;;;;5.80;2.92;;;3.80;99.90;;;;;;5078359;28;20106;-81
2023/04/05 08:45:17;;;;;;;13.35;3.30;;;3.80;99.90;;;;;;5081800;28;20047;-83
2023/04/05 08:47:45;;;;;;;8.60;3.35;;;3.80;99.90;;;;;;5090804;28;20046;-81
2023/04/05 08:50:12;;;;;;;8.77;4.50;;;3.80;99.90;;;;;;5065952;28;20024;-84
2023/04/05 08:52:41;;;;;;;9.85;4.60;;;3.80;99.90;;;;;;5082427;28;20016;-83
2023/04/05 08:55:07;;;;;;;8.52;4.13;;;3.70;99.90;;;;;;5085131;28;20020;-81
2023/04/05 08:57:41;;;;;;;9.93;4.57;;;3.80;99.90;;;;;;5086335;28;20374;-80
2023/04/05 09:00:07;;;;;;;7.57;3.83;;;4.00;99.90;;;;;;5064943;28;20016;-82
2023/04/05 09:02:35;;;;;;;9.98;4.78;;;4.10;99.90;;;;;;5061767;28;20028;-82
2023/04/05 09:05:02;;;;;;;12.80;4.20;;;4.20;99.90;;;;;;5077031;28;20103;-80
2023/04/05 09:14:37;;;;;;;13.82;4.35;;;4.60;99.90;;;;;;5048619;28;20075;-83
2023/04/05 09:17:03;;;;;;;8.82;4.20;;;4.70;99.90;;;;;;5055185;28;20040;-85
2023/04/05 09:19:29;;;;;;;9.32;4.38;;;4.60;99.90;;;;;;5059237;28;20043;-84
2023/04/05 09:22:05;;;;;;;10.93;4.50;;;4.60;99.90;;;;;;5059836;28;20428;-85
2023/04/05 09:24:40;;;;;;;7.53;4.45;;;4.60;99.90;;;;;;5057085;28;20100;-84
2023/04/05 09:27:13;;;;;;;7.70;4.25;;;4.50;99.90;;;;;;5060904;28;20082;-85
2023/04/05 09:29:43;;;;;;;9.82;4.20;;;4.50;99.90;;;;;;5060309;28;20037;-84
2023/04/05 09:32:10;;;;;;;12.52;4.68;;;4.50;99.90;;;;;;5067328;28;20666;-85
2023/04/05 09:34:37;;;;;;;7.28;4.18;;;4.50;99.90;;;;;;5062738;28;20025;-85
2023/04/05 09:37:14;;;;;;;8.38;4.75;;;4.50;99.90;;;;;;5058106;28;20100;-86
2023/04/05 09:39:40;;;;;;;8.52;4.20;;;4.50;99.90;;;;;;5057875;28;20035;-84
2023/04/05 09:42:16;;;;;;;7.22;3.83;;;4.40;99.90;;;;;;5058284;28;20118;-85
2023/04/05 09:45:06;;;;;;;7.03;4.03;;;4.50;99.90;;;;;;5058058;28;20068;-84
2023/04/05 09:47:35;;;;;;;7.07;3.88;;;4.40;99.90;;;;;;5055535;28;20123;-84
2023/04/05 09:50:21;;;;;;;7.43;3.72;;;4.40;99.90;;;;;;5061736;28;20036;-84
2023/04/05 09:52:48;;;;;;;11.00;3.45;;;4.50;99.90;;;;;;5056776;28;20032;-84
2023/04/05 09:55:24;;;;;;;5.95;3.10;;;4.50;99.90;;;;;;5060892;28;20503;-84
2023/04/05 09:57:49;;;;;;;10.07;2.95;;;4.50;99.90;;;;;;5062553;28;20028;-85
2023/04/05 10:00:22;;;;;;;6.82;3.10;;;4.60;99.90;;;;;;5065708;28;20118;-84
2023/04/05 10:02:52;;;;;;;6.88;3.47;;;4.60;99.90;;;;;;5059594;28;20090;-84
2023/04/05 10:05:18;;;;;;;9.27;3.03;;;4.70;99.90;;;;;;5058210;28;20388;-84
2023/04/05 10:07:44;;;;;;;5.35;2.72;;;4.80;99.90;;;;;;5059376;28;20029;-87
2023/04/05 10:10:14;;;;;;;6.30;2.92;;;4.80;99.90;;;;;;5060984;28;20072;-83
2023/04/05 10:12:41;;;;;;;5.88;2.55;;;4.90;99.90;;;;;;5063865;28;20028;-82
2023/04/05 10:15:11;;;;;;;6.28;2.95;;;4.90;99.90;;;;;;5044577;28;20060;-82
2023/04/05 10:17:48;;;;;;;6.95;2.72;;;5.00;99.90;;;;;;5045014;28;20039;-83
2023/04/05 10:20:46;;;;;;;4.45;2.65;;;5.00;99.90;;;;;;5045805;28;20032;-84
2023/04/05 10:23:20;;;;;;;4.28;2.72;;;5.00;99.90;;;;;;5038700;28;20051;-84
2023/04/05 10:25:52;;;;;;;4.50;2.83;;;5.20;99.90;;;;;;5045363;28;20120;-83
2023/04/05 10:28:31;;;;;;;10.40;4.30;;;5.30;99.90;;;;;;5034354;28;20025;-81
2023/04/05 10:31:27;;;;;;;5.28;3.30;;;5.40;99.90;;;;;;5043526;28;20397;-81
2023/04/05 10:34:04;;;;;;;7.57;2.95;;;5.80;99.90;;;;;;5044991;28;20080;-82
2023/04/05 10:36:48;;;;;;;8.48;3.30;;;6.00;99.90;;;;;;5051165;28;20040;-81
2023/04/05 10:39:32;;;;;;;9.73;3.65;;;6.10;99.90;;;;;;5039289;28;20151;-82
2023/04/05 10:42:09;;;;;;;13.60;3.50;;;6.20;99.90;;;;;;5045427;28;20474;-82
2023/04/05 10:44:36;;;;;;;8.25;3.28;;;6.40;99.90;;;;;;5028460;28;20575;-80
2023/04/05 10:47:04;;;;;;;7.35;3.25;;;6.50;99.90;;;;;;5044982;28;20021;-81
2023/04/05 10:49:39;;;;;;;4.07;3.00;;;6.40;99.90;;;;;;5055925;28;20035;-81
2023/04/05 10:52:05;;;;;;;7.13;3.22;;;6.40;99.90;;;;;;5045213;28;20064;-81
2023/04/05 10:54:33;;;;;;;9.98;4.03;;;6.20;99.90;;;;;;5045722;28;20533;-81
2023/04/05 10:57:02;;;;;;;6.03;2.75;;;6.20;99.90;;;;;;5045204;28;20032;-82
2023/04/05 10:59:29;;;;;;;7.88;4.43;;;6.00;99.90;;;;;;5046083;28;20151;-82
2023/04/05 11:01:55;;;;;;;7.85;3.30;;;5.90;99.90;;;;;;5042691;28;20040;-81
2023/04/05 11:04:21;;;;;;;5.95;3.47;;;5.80;99.90;;;;;;5043283;28;20402;-81
2023/04/05 11:07:07;;;;;;;7.10;3.38;;;5.80;99.90;;;;;;5044384;28;20029;-81
2023/04/05 11:09:33;;;;;;;8.55;3.50;;;5.70;99.90;;;;;;5045785;28;20040;-80
2023/04/05 11:11:58;;;;;;;6.72;3.40;;;5.70;99.90;;;;;;5042809;28;20033;-81
2023/04/05 11:14:37;;;;;;;5.60;3.20;;;5.60;99.90;;;;;;5048145;28;20176;-82
2023/04/05 11:17:03;;;;;;;5.82;3.40;;;5.60;99.90;;;;;;5066026;28;20012;-81
2023/04/05 11:22:54;;;;;;;11.27;3.92;;;5.60;99.90;;;;;;5061024;28;20076;-81
2023/04/05 11:25:23;;;;;;;15.50;3.90;;;5.60;99.90;;;;;;5065288;28;20496;-82
2023/04/05 11:28:00;;;;;;;5.53;2.90;;;5.50;99.90;;;;;;5054537;28;20143;-82
2023/04/05 11:30:45;;;;;;;7.43;2.90;;;5.40;99.90;;;;;;5081285;28;20054;-81
2023/04/05 11:33:10;;;;;;;6.55;3.10;;;5.40;99.90;;;;;;5079352;28;20388;-81
2023/04/05 11:35:38;;;;;;;6.82;3.55;;;5.60;99.90;;;;;;5085535;28;20290;-80
2023/04/05 11:38:04;;;;;;;12.57;3.35;;;5.70;99.90;;;;;;5081631;28;20032;-82
2023/04/05 11:40:39;;;;;;;7.88;3.25;;;5.80;99.90;;;;;;5060217;28;20029;-81
2023/04/05 11:43:13;;;;;;;6.75;3.60;;;5.80;99.90;;;;;;5059534;28;20035;-82
2023/04/05 11:45:42;;;;;;;6.80;3.90;;;5.70;99.90;;;;;;5074821;28;20123;-81
2023/04/05 11:48:12;;;;;;;7.30;3.28;;;5.70;99.90;;;;;;5073132;28;20029;-83
2023/04/05 11:50:43;;;;;;;7.88;3.42;;;5.70;99.90;;;;;;5066171;28;20454;-81
2023/04/05 11:53:17;;;;;;;10.75;3.47;;;5.70;99.90;;;;;;5066669;28;20476;-81
2023/04/05 11:55:50;;;;;;;9.82;3.95;;;5.70;99.90;;;;;;5062426;28;20111;-82
2023/04/05 11:58:20;;;;;;;4.10;3.10;;;5.70;99.90;;;;;;5078386;28;20032;-82
2023/04/05 12:00:55;;;;;;;9.18;4.40;;;5.80;99.90;;;;;;5067016;28;20634;-82
2023/04/05 12:03:20;;;;;;;5.82;2.95;;;5.90;99.90;;;;;;5070582;28;20031;-83
2023/04/05 12:05:58;;;;;;;9.98;3.70;;;6.00;99.90;;;;;;5074765;28;20020;-82
2023/04/05 12:08:41;;;;;;;8.50;3.28;;;6.10;99.90;;;;;;5062940;28;20369;-81
2023/04/05 12:11:11;;;;;;;8.95;3.50;;;6.30;99.90;;;;;;5066014;28;20074;-81
2023/04/05 12:13:38;;;;;;;5.63;3.17;;;6.40;99.90;;;;;;5074063;28;20036;-82
2023/04/05 12:16:06;;;;;;;8.90;3.35;;;6.50;99.90;;;;;;5060143;28;20028;-82
2023/04/05 12:18:34;;;;;;;10.98;3.53;;;6.60;99.90;;;;;;5076759;28;20400;-82
2023/04/05 12:21:06;;;;;;;6.32;3.13;;;6.70;99.90;;;;;;5060845;28;20039;-81
2023/04/05 12:23:32;;;;;;;6.70;3.17;;;6.90;99.90;;;;;;5082250;28;20284;-82
2023/04/05 12:25:58;;;;;;;4.85;2.65;;;7.00;99.90;;;;;;5079525;28;20063;-83
2023/04/05 12:28:24;;;;;;;6.50;2.90;;;7.10;99.90;;;;;;5057591;28;20037;-81
2023/04/05 12:30:56;;;;;;;6.15;3.10;;;7.20;99.90;;;;;;5067432;28;20036;-83
2023/04/05 12:33:29;;;;;;;6.30;3.25;;;7.30;93.80;;;;;;5073158;28;20081;-81
2023/04/05 12:35:55;;;;;;;5.47;2.83;;;7.50;80.90;;;;;;5080748;28;20032;-82
2023/04/05 12:38:25;;;;;;;9.65;3.25;;;7.60;88.30;;;;;;5088368;28;20031;-83
2023/04/05 12:40:51;;;;;;;7.25;2.83;;;7.70;95.00;;;;;;5085651;28;20035;-83
2023/04/05 12:43:19;;;;;;;5.32;3.47;;;7.80;96.80;;;;;;5057140;28;20033;-84
2023/04/05 12:45:45;;;;;;;4.22;3.10;;;7.70;92.80;;;;;;5070358;28;20032;-82
2023/04/05 12:48:13;;;;;;;6.97;2.60;;;7.70;90.70;;;;;;5065726;28;20028;-83
2023/04/05 12:50:43;;;;;;;7.47;3.38;;;7.70;89.80;;;;;;5064749;28;20033;-83
2023/04/05 12:53:19;;;;;;;4.80;2.45;;;7.70;77.70;;;;;;5065107;28;20017;-83
2023/04/05 12:55:52;;;;;;;4.90;3.20;;;7.70;86.50;;;;;;5074000;28;20047;-84
2023/04/05 12:58:34;;;;;;;8.77;2.75;;;7.70;90.10;;;;;;5088348;28;20032;-82
2023/04/05 13:00:59;;;;;;;8.80;3.05;;;7.70;71.50;;;;;;5049670;28;20039;-83
2023/04/05 13:03:26;;;;;;;10.50;2.92;;;7.70;75.70;;;;;;5080939;28;20049;-82
2023/04/05 13:05:52;;;;;;;6.43;2.33;;;7.60;90.60;;;;;;5087053;28;20032;-82
2023/04/05 13:08:18;;;;;;;8.20;3.17;;;7.60;90.40;;;;;;5074420;28;20031;-83
2023/04/05 13:10:45;;;;;;;8.45;3.10;;;7.60;85.30;;;;;;5050552;28;20079;-83
2023/04/05 13:13:15;;;;;;;6.57;3.33;;;7.60;91.50;;;;;;5069314;28;20036;-83
2023/04/05 13:15:40;;;;;;;7.85;2.60;;;7.70;94.50;;;;;;5067731;28;20112;-82
2023/04/05 13:18:06;;;;;;;6.50;3.22;;;7.80;91.20;;;;;;5068690;28;20056;-82
2023/04/05 13:20:33;;;;;;;9.38;3.03;;;7.90;89.30;;;;;;5061443;28;20032;-82
2023/04/05 13:22:59;;;;;;;5.95;2.75;;;8.00;89.00;;;;;;5066483;28;20038;-83
2023/04/05 13:25:25;;;;;;;5.88;2.80;;;8.10;90.10;;;;;;5064584;28;20032;-82
2023/04/05 13:27:50;;;;;;;5.85;3.25;;;8.10;90.80;;;;;;5058639;28;20388;-82